Time;durP1;ratioP1;P1;durP2;ratioP2;P2;SDS_P1;SDS_P2;PMS_P1;PMS_P2;Temp;Humidity;BMP_temperature;BMP_pressure;BME280_temperature;BME280_humidity;BME280_pressure;Samples;Min_cycle;Max_cycle;Signal;HPM_P1;HPM_P2
2021/01/26 00:01:46;;;;;;;2.42;1.55;;;8.40;62.00;;;;;;21032585;28;20398;-69
2021/01/26 00:11:47;;;;;;;5.47;1.52;;;8.30;61.90;;;;;;21046400;28;20036;-71
2021/01/26 00:21:49;;;;;;;3.70;0.88;;;8.30;62.00;;;;;;21072028;28;20290;-70
2021/01/26 00:31:50;;;;;;;2.67;1.13;;;8.30;62.00;;;;;;21072318;28;20032;-69
2021/01/26 00:41:51;;;;;;;1.33;1.00;;;8.30;61.90;;;;;;21055139;28;20036;-69
2021/01/26 00:51:51;;;;;;;1.23;0.80;;;8.30;62.00;;;;;;21054729;28;20036;-69
2021/01/26 01:01:54;;;;;;;1.92;1.65;;;8.30;62.00;;;;;;21054158;28;20351;-69
2021/01/26 01:11:55;;;;;;;2.05;0.88;;;8.30;62.00;;;;;;21053972;28;20119;-69
2021/01/26 01:21:55;;;;;;;1.92;1.52;;;8.30;62.00;;;;;;21053030;28;20085;-69
2021/01/26 01:31:56;;;;;;;1.30;0.88;;;8.30;61.90;;;;;;21075801;28;20043;-69
2021/01/26 01:41:57;;;;;;;1.40;1.02;;;8.30;62.00;;;;;;21084008;28;20044;-69
2021/01/26 01:51:57;;;;;;;2.97;1.17;;;8.30;62.00;;;;;;21067707;28;20055;-69
2021/01/26 02:01:58;;;;;;;1.65;0.98;;;8.30;62.00;;;;;;21065848;28;20039;-69
2021/01/26 02:11:58;;;;;;;1.10;0.73;;;8.30;61.90;;;;;;21065240;28;20160;-71
2021/01/26 02:22:08;;;;;;;1.75;0.98;;;8.20;61.90;;;;;;21058702;28;20032;-69
2021/01/26 02:32:27;;;;;;;2.47;1.25;;;8.30;62.00;;;;;;21058665;28;20063;-71
2021/01/26 02:42:39;;;;;;;2.08;1.40;;;8.30;62.00;;;;;;21080159;28;20040;-70
2021/01/26 02:52:43;;;;;;;1.90;1.00;;;8.30;62.00;;;;;;21062096;28;20419;-69
2021/01/26 03:03:10;;;;;;;1.20;0.60;;;8.30;62.00;;;;;;21061699;28;20032;-70
2021/01/26 03:13:11;;;;;;;1.37;0.70;;;8.30;62.00;;;;;;21045381;28;20123;-71
2021/01/26 03:23:35;;;;;;;2.50;1.23;;;8.30;62.00;;;;;;21053751;28;20042;-71
2021/01/26 03:33:37;;;;;;;1.30;0.63;;;8.30;62.00;;;;;;21058807;28;20604;-70
2021/01/26 03:43:38;;;;;;;1.23;0.70;;;8.30;62.00;;;;;;21057738;28;20032;-70
2021/01/26 03:54:23;;;;;;;0.77;0.77;;;8.30;62.10;;;;;;21040585;28;20108;-72
2021/01/26 04:04:39;;;;;;;1.25;1.15;;;8.30;62.10;;;;;;21067592;28;20432;-71
2021/01/26 04:14:47;;;;;;;1.02;0.60;;;8.30;62.20;;;;;;21039634;28;20119;-69
2021/01/26 04:24:48;;;;;;;1.27;0.82;;;8.20;62.10;;;;;;21035566;28;20449;-71
2021/01/26 04:34:49;;;;;;;1.30;0.70;;;8.20;62.10;;;;;;21071737;28;20040;-70
2021/01/26 04:45:11;;;;;;;1.85;1.08;;;8.30;62.20;;;;;;21064240;28;20044;-72
2021/01/26 04:55:37;;;;;;;1.38;0.75;;;8.30;62.20;;;;;;21051316;28;20108;-69
2021/01/26 05:05:40;;;;;;;1.08;0.73;;;8.30;62.20;;;;;;21043967;28;20044;-70
2021/01/26 05:15:42;;;;;;;0.52;0.52;;;8.20;62.30;;;;;;21074082;28;20216;-69
2021/01/26 05:25:43;;;;;;;2.20;0.98;;;8.30;62.60;;;;;;21082442;28;21025;-70
2021/01/26 05:35:48;;;;;;;2.90;1.58;;;8.60;62.50;;;;;;21064002;28;20039;-71
2021/01/26 05:45:55;;;;;;;1.98;1.40;;;8.80;62.00;;;;;;21039418;28;20043;-69
2021/01/26 05:56:11;;;;;;;2.80;1.25;;;8.90;61.20;;;;;;21045451;28;20128;-70
2021/01/26 06:06:17;;;;;;;1.13;0.65;;;9.00;60.80;;;;;;21041554;28;20046;-70
2021/01/26 06:16:22;;;;;;;1.60;0.85;;;9.10;60.20;;;;;;21067603;28;20111;-69
2021/01/26 06:26:25;;;;;;;1.75;0.93;;;9.00;59.70;;;;;;21047781;28;20055;-73
2021/01/26 06:36:37;;;;;;;2.13;0.73;;;8.90;59.80;;;;;;21048736;28;20038;-70
2021/01/26 06:46:43;;;;;;;0.80;0.52;;;8.80;59.80;;;;;;21043314;28;20379;-71
2021/01/26 06:56:50;;;;;;;0.68;0.65;;;8.70;60.20;;;;;;21061475;28;20043;-70
2021/01/26 07:07:19;;;;;;;0.93;0.87;;;8.60;60.60;;;;;;21059951;28;20028;-69
2021/01/26 07:17:48;;;;;;;0.65;0.63;;;8.60;60.90;;;;;;21069003;28;20095;-69
2021/01/26 07:28:21;;;;;;;1.35;0.88;;;8.50;61.10;;;;;;21063897;28;20191;-70
2021/01/26 07:38:36;;;;;;;1.20;0.63;;;8.50;61.30;;;;;;21054645;28;20035;-69
2021/01/26 07:48:50;;;;;;;0.68;0.60;;;8.40;61.50;;;;;;21040223;28;20036;-69
2021/01/26 07:58:51;;;;;;;0.68;0.60;;;8.50;61.60;;;;;;21073570;28;20035;-69
2021/01/26 08:08:51;;;;;;;5.97;0.90;;;8.50;61.70;;;;;;21073449;28;20036;-69
2021/01/26 08:18:52;;;;;;;1.52;0.80;;;8.50;61.70;;;;;;21054311;28;20290;-69
2021/01/26 08:28:53;;;;;;;0.93;0.82;;;8.50;61.70;;;;;;21064437;28;20122;-69
2021/01/26 08:38:57;;;;;;;2.20;1.02;;;8.50;61.80;;;;;;21078415;28;20027;-71
2021/01/26 08:49:20;;;;;;;1.30;0.88;;;8.50;61.70;;;;;;21070033;28;20047;-70
2021/01/26 08:59:28;;;;;;;1.95;1.38;;;8.40;61.70;;;;;;21054514;28;20085;-68
2021/01/26 09:09:29;;;;;;;1.08;0.90;;;8.50;61.80;;;;;;21053325;28;20035;-70
2021/01/26 09:19:43;;;;;;;2.10;1.17;;;8.50;61.80;;;;;;21063180;28;20028;-71
2021/01/26 09:29:44;;;;;;;4.15;1.75;;;8.50;61.80;;;;;;21047550;28;20414;-71
2021/01/26 09:39:44;;;;;;;1.85;1.27;;;8.40;61.70;;;;;;21261695;22;20056;-76
2021/01/26 09:49:45;;;;;;;1.38;1.10;;;8.40;61.70;;;;;;20799646;28;20034;-82
2021/01/26 09:59:47;;;;;;;3.28;0.93;;;8.40;61.70;;;;;;20828108;28;20033;-78
2021/01/26 10:09:48;;;;;;;5.38;1.13;;;8.40;62.40;;;;;;20788797;28;20072;-80
2021/01/26 10:19:49;;;;;;;1.83;0.98;;;8.40;61.70;;;;;;20793717;28;20110;-79
2021/01/26 10:30:12;;;;;;;1.38;1.27;;;8.40;61.80;;;;;;20804809;28;20419;-75
2021/01/26 10:40:30;;;;;;;1.67;1.20;;;8.40;61.80;;;;;;20811039;28;20042;-73
2021/01/26 10:50:31;;;;;;;;;;;8.40;61.80;;;;;;20781079;28;20514;-74
2021/01/26 11:00:31;;;;;;;2.15;1.20;;;8.40;61.80;;;;;;20784143;28;20038;-75
2021/01/26 11:10:32;;;;;;;2.75;1.52;;;8.40;61.90;;;;;;20756627;28;20041;-76
2021/01/26 11:20:34;;;;;;;4.03;1.52;;;8.40;61.90;;;;;;20817017;28;20080;-77
2021/01/26 11:30:35;;;;;;;4.60;2.47;;;8.40;61.80;;;;;;20800733;28;20045;-74
2021/01/26 11:40:35;;;;;;;2.53;1.83;;;8.40;61.90;;;;;;20783915;28;20043;-76
2021/01/26 11:50:36;;;;;;;2.58;1.63;;;8.40;61.90;;;;;;20781897;28;20306;-76
2021/01/26 12:00:37;;;;;;;7.25;2.33;;;8.30;61.90;;;;;;20768181;28;20029;-76
2021/01/26 12:10:37;;;;;;;2.70;2.03;;;8.30;61.90;;;;;;20768583;28;20088;-77
2021/01/26 12:20:38;;;;;;;3.42;1.85;;;8.30;61.90;;;;;;20769522;28;20483;-77
2021/01/26 12:30:41;;;;;;;2.80;1.83;;;8.30;61.90;;;;;;20774166;28;20125;-76
2021/01/26 12:40:43;;;;;;;2.28;1.27;;;8.30;62.00;;;;;;20777462;28;20037;-75
2021/01/26 12:50:46;;;;;;;1.52;1.20;;;8.40;62.00;;;;;;20774297;28;20069;-75
2021/01/26 13:00:47;;;;;;;2.17;1.58;;;8.40;61.80;;;;;;20784974;28;20025;-74
2021/01/26 13:10:48;;;;;;;5.68;2.50;;;8.40;61.60;;;;;;20761130;28;20049;-75
2021/01/26 13:20:49;;;;;;;6.68;3.00;;;8.40;61.50;;;;;;20753168;28;20045;-73
2021/01/26 13:30:50;;;;;;;4.90;2.40;;;8.30;61.50;;;;;;20803341;28;20037;-75
2021/01/26 13:40:51;;;;;;;4.50;1.92;;;8.30;61.50;;;;;;20796559;28;20888;-75
2021/01/26 13:50:53;;;;;;;2.20;1.65;;;8.30;61.60;;;;;;20786424;28;20065;-75
2021/01/26 14:00:54;;;;;;;2.75;1.48;;;8.30;61.60;;;;;;20813763;28;20369;-74
2021/01/26 14:10:54;;;;;;;3.15;1.45;;;8.20;61.60;;;;;;20802817;28;20179;-76
2021/01/26 14:20:55;;;;;;;3.00;1.80;;;8.30;61.70;;;;;;20793416;28;20038;-74
2021/01/26 14:30:56;;;;;;;1.45;0.80;;;8.30;61.70;;;;;;20817449;28;20044;-75
2021/01/26 14:40:58;;;;;;;3.28;1.92;;;8.30;61.70;;;;;;20778545;28;20124;-76
2021/01/26 14:50:59;;;;;;;2.17;1.27;;;8.30;61.80;;;;;;20811363;28;20113;-76
2021/01/26 15:00:59;;;;;;;2.30;1.30;;;8.20;61.70;;;;;;20809925;28;20029;-76
2021/01/26 15:11:00;;;;;;;1.23;0.82;;;8.30;61.90;;;;;;20793354;28;20296;-76
2021/01/26 15:21:01;;;;;;;1.02;0.60;;;8.30;62.00;;;;;;20773261;28;20072;-74
2021/01/26 15:31:01;;;;;;;1.33;1.00;;;8.40;62.10;;;;;;20793266;28;20049;-76
2021/01/26 15:41:02;;;;;;;1.67;1.13;;;8.70;61.90;;;;;;20805204;28;20068;-74
2021/01/26 15:51:02;;;;;;;3.22;0.90;;;8.90;61.30;;;;;;20796881;28;20687;-72
2021/01/26 16:01:03;;;;;;;4.78;1.38;;;9.00;60.60;;;;;;20802618;28;20476;-72
2021/01/26 16:11:04;;;;;;;1.58;1.15;;;9.00;60.20;;;;;;20816329;28;20040;-75
2021/01/26 16:21:06;;;;;;;8.50;1.20;;;9.00;59.70;;;;;;20801622;28;20045;-72
2021/01/26 16:31:07;;;;;;;1.88;1.15;;;8.90;59.70;;;;;;20792608;28;20423;-75
2021/01/26 16:41:07;;;;;;;6.63;1.88;;;8.90;59.70;;;;;;20791803;28;20121;-74
2021/01/26 16:51:08;;;;;;;1.85;1.05;;;8.70;59.90;;;;;;20774673;28;20048;-75
2021/01/26 17:01:09;;;;;;;3.35;1.38;;;8.60;60.30;;;;;;20781575;28;20075;-80
2021/01/26 17:11:10;;;;;;;5.25;1.35;;;8.50;60.50;;;;;;20832475;28;20040;-77
2021/01/26 17:21:11;;;;;;;2.08;1.15;;;8.50;60.90;;;;;;20796528;28;20076;-72
2021/01/26 17:31:13;;;;;;;3.60;1.80;;;8.50;61.10;;;;;;20809635;28;20487;-80
2021/01/26 17:41:15;;;;;;;2.75;1.85;;;8.40;61.30;;;;;;20799277;28;20064;-77
2021/01/26 17:51:16;;;;;;;4.57;1.13;;;8.40;61.40;;;;;;20788123;28;20494;-79
2021/01/26 18:01:18;;;;;;;2.50;1.42;;;8.40;61.60;;;;;;20824860;28;20164;-76
2021/01/26 18:11:20;;;;;;;0.63;0.45;;;8.40;61.70;;;;;;20853363;28;20099;-79
2021/01/26 18:21:21;;;;;;;2.47;1.45;;;8.40;61.70;;;;;;20784591;28;20086;-82
2021/01/26 18:31:25;;;;;;;5.28;1.70;;;8.40;61.80;;;;;;20809456;28;20037;-80
2021/01/26 18:41:26;;;;;;;4.10;2.03;;;8.40;61.90;;;;;;20796129;28;20025;-80
2021/01/26 18:51:27;;;;;;;1.85;1.10;;;8.40;61.90;;;;;;20810903;28;20037;-79
2021/01/26 19:01:27;;;;;;;2.70;1.55;;;8.40;62.00;;;;;;20815789;28;20037;-79
2021/01/26 19:11:28;;;;;;;1.48;0.75;;;8.40;62.00;;;;;;20848787;28;20842;-80
2021/01/26 19:21:29;;;;;;;1.80;0.73;;;8.40;62.00;;;;;;20798807;28;20400;-80
2021/01/26 19:31:32;;;;;;;3.05;0.85;;;8.40;62.00;;;;;;20817953;28;20411;-79
2021/01/26 19:41:39;;;;;;;1.25;0.98;;;8.40;62.00;;;;;;20809202;28;20095;-79
2021/01/26 19:51:40;;;;;;;2.13;0.97;;;8.40;62.00;;;;;;20818991;28;20056;-80
2021/01/26 20:01:40;;;;;;;2.33;1.90;;;8.40;61.90;;;;;;20789012;28;20049;-79
2021/01/26 20:11:41;;;;;;;1.10;0.45;;;8.40;62.00;;;;;;20817639;28;20134;-79
2021/01/26 20:21:42;;;;;;;1.23;0.88;;;8.40;62.00;;;;;;20816448;28;20320;-79
2021/01/26 20:31:43;;;;;;;1.17;0.75;;;8.40;62.00;;;;;;20775557;28;20046;-78
2021/01/26 20:41:46;;;;;;;2.10;0.63;;;8.40;62.00;;;;;;20779063;28;20072;-80
2021/01/26 20:51:47;;;;;;;0.82;0.40;;;8.40;62.00;;;;;;20780623;28;20356;-80
2021/01/26 21:01:52;;;;;;;1.63;1.15;;;8.40;62.00;;;;;;20791367;28;20125;-79
2021/01/26 21:11:53;;;;;;;0.88;0.70;;;8.30;62.00;;;;;;20788117;28;20033;-79
2021/01/26 21:21:55;;;;;;;2.13;1.13;;;8.40;62.00;;;;;;20790916;28;20061;-79
2021/01/26 21:31:57;;;;;;;1.38;0.85;;;8.30;61.90;;;;;;20790552;28;20049;-78
2021/01/26 21:41:59;;;;;;;1.20;0.82;;;8.40;62.00;;;;;;20808464;28;20034;-77
2021/01/26 21:52:02;;;;;;;1.25;0.80;;;8.40;62.00;;;;;;20798953;28;20034;-78
2021/01/26 22:02:03;;;;;;;1.92;1.08;;;8.40;62.00;;;;;;20817925;28;20155;-79
2021/01/26 22:12:06;;;;;;;1.75;0.98;;;8.30;61.90;;;;;;20788565;28;20058;-78
2021/01/26 22:22:07;;;;;;;2.30;1.65;;;8.30;62.00;;;;;;20814545;28;20040;-78
2021/01/26 22:32:08;;;;;;;0.80;0.73;;;8.30;62.00;;;;;;20812648;28;20045;-79
2021/01/26 22:42:10;;;;;;;0.75;0.60;;;8.30;62.00;;;;;;20820611;28;20026;-79
2021/01/26 22:52:14;;;;;;;0.88;0.80;;;8.30;61.90;;;;;;20809761;28;20073;-78
2021/01/26 23:02:15;;;;;;;2.97;1.33;;;8.30;61.90;;;;;;20810703;28;20064;-79
2021/01/26 23:12:15;;;;;;;0.95;0.73;;;8.30;61.90;;;;;;20775334;28;20068;-78
2021/01/26 23:22:16;;;;;;;0.55;0.55;;;8.30;62.00;;;;;;20792301;28;20299;-78
2021/01/26 23:32:17;;;;;;;1.03;0.90;;;8.30;62.00;;;;;;20823678;28;20037;-78
2021/01/26 23:42:18;;;;;;;1.20;0.77;;;8.30;62.00;;;;;;20805839;28;20305;-78
2021/01/26 23:52:19;;;;;;;1.55;0.57;;;8.30;61.90;;;;;;20817837;28;20056;-78
